createdAt,value
2018-10-03T00:02:03.587Z,13.10
2018-10-03T00:04:32.510Z,13.26
2018-10-03T00:07:01.535Z,13.13
2018-10-03T00:09:30.531Z,13.24
2018-10-03T00:11:59.470Z,13.23
2018-10-03T00:14:28.566Z,13.35
2018-10-03T00:16:57.543Z,13.51
2018-10-03T00:19:26.528Z,13.30
2018-10-03T00:21:55.491Z,13.48
2018-10-03T00:24:24.454Z,13.42
2018-10-03T00:26:53.496Z,13.50
2018-10-03T00:29:22.439Z,13.39
2018-10-03T00:31:51.428Z,13.45
2018-10-03T00:34:20.378Z,13.51
2018-10-03T00:36:49.387Z,13.36
2018-10-03T00:39:18.360Z,13.52
2018-10-03T00:41:47.350Z,13.58
2018-10-03T00:44:16.350Z,13.43
2018-10-03T00:46:45.323Z,13.46
2018-10-03T00:49:14.280Z,13.46
2018-10-03T00:51:43.245Z,13.52
2018-10-03T00:54:12.220Z,13.47
2018-10-03T00:56:41.182Z,13.48
2018-10-03T00:59:10.122Z,13.52
2018-10-03T01:01:39.231Z,13.54
2018-10-03T01:04:08.179Z,13.38
2018-10-03T01:06:37.158Z,13.43
2018-10-03T01:09:06.899Z,13.42
2018-10-03T01:11:35.866Z,13.54
2018-10-03T01:14:04.878Z,13.61
2018-10-03T01:16:33.813Z,13.56
2018-10-03T01:19:02.738Z,13.39
2018-10-03T01:21:31.690Z,13.36
2018-10-03T01:24:00.599Z,13.25
2018-10-03T01:26:29.586Z,13.35
2018-10-03T01:28:58.523Z,13.43
2018-10-03T01:31:27.455Z,13.31
2018-10-03T01:33:56.370Z,13.42
2018-10-03T01:36:25.345Z,13.40
2018-10-03T01:38:54.299Z,13.26
2018-10-03T01:41:23.292Z,12.98
2018-10-03T01:43:52.295Z,13.26
2018-10-03T01:46:21.371Z,13.30
2018-10-03T01:48:50.322Z,13.31
2018-10-03T01:51:19.366Z,13.40
2018-10-03T01:53:48.333Z,13.33
2018-10-03T01:56:17.343Z,13.28
2018-10-03T01:58:46.320Z,13.46
2018-10-03T02:01:15.261Z,13.41
2018-10-03T02:03:44.242Z,13.30
2018-10-03T02:06:13.194Z,13.29
2018-10-03T02:08:42.292Z,13.31
2018-10-03T02:11:11.239Z,13.36
2018-10-03T02:13:40.209Z,13.11
2018-10-03T02:16:09.186Z,13.24
2018-10-03T02:18:38.148Z,13.16
2018-10-03T02:21:07.252Z,13.24
2018-10-03T02:23:36.207Z,13.10
2018-10-03T02:26:05.186Z,13.12
2018-10-03T02:28:34.158Z,13.20
2018-10-03T02:31:03.169Z,12.85
2018-10-03T02:33:32.163Z,12.97
2018-10-03T02:36:01.139Z,13.02
2018-10-03T02:38:30.136Z,13.00
2018-10-03T02:40:59.135Z,13.04
2018-10-03T02:43:28.126Z,13.09
2018-10-03T02:45:57.112Z,13.05
2018-10-03T02:48:26.062Z,13.04
2018-10-03T02:50:55.003Z,12.99
2018-10-03T02:53:23.947Z,13.07
2018-10-03T02:55:52.878Z,13.03
2018-10-03T02:58:21.822Z,13.06
2018-10-03T03:00:50.748Z,12.97
2018-10-03T03:03:19.701Z,13.06
2018-10-03T03:05:48.626Z,13.04
2018-10-03T03:08:17.617Z,13.24
2018-10-03T03:10:46.579Z,13.39
2018-10-03T03:13:15.531Z,13.15
2018-10-03T03:15:44.546Z,13.18
2018-10-03T03:18:13.560Z,13.27
2018-10-03T03:20:42.484Z,13.20
2018-10-03T03:23:11.431Z,13.25
2018-10-03T03:25:40.343Z,13.37
2018-10-03T03:28:09.282Z,13.35
2018-10-03T03:30:38.204Z,13.20
2018-10-03T03:33:07.171Z,13.06
2018-10-03T03:35:36.098Z,13.22
2018-10-03T03:38:05.059Z,13.37
2018-10-03T03:40:33.986Z,13.34
2018-10-03T03:43:02.931Z,13.48
2018-10-03T03:45:31.889Z,13.27
2018-10-03T03:48:00.886Z,13.26
2018-10-03T03:50:30.111Z,13.19
2018-10-03T03:52:59.074Z,13.30
2018-10-03T03:55:28.031Z,13.27
2018-10-03T03:57:56.971Z,13.33
2018-10-03T04:00:25.898Z,13.39
2018-10-03T04:02:54.860Z,13.31
2018-10-03T04:05:23.788Z,13.52
2018-10-03T04:07:52.747Z,13.61
2018-10-03T04:10:21.671Z,13.63
2018-10-03T04:12:50.894Z,13.71
2018-10-03T04:15:19.899Z,13.81
2018-10-03T04:17:48.826Z,13.79
2018-10-03T04:20:17.790Z,13.74
2018-10-03T04:22:46.713Z,13.69
2018-10-03T04:25:15.657Z,13.77
2018-10-03T04:27:44.590Z,13.69
2018-10-03T04:30:13.535Z,13.71
2018-10-03T04:32:42.479Z,13.78
2018-10-03T04:35:11.449Z,13.69
2018-10-03T04:37:40.374Z,13.79
2018-10-03T04:40:09.330Z,13.86
2018-10-03T04:42:38.257Z,13.86
2018-10-03T04:45:07.216Z,13.78
2018-10-03T04:47:36.146Z,13.59
2018-10-03T04:50:05.095Z,13.71
2018-10-03T04:52:34.018Z,13.36
2018-10-03T04:55:02.988Z,13.50
2018-10-03T04:57:31.934Z,13.63
2018-10-03T05:00:00.867Z,13.66
2018-10-03T05:02:29.798Z,13.57
2018-10-03T05:04:58.750Z,13.33
2018-10-03T05:07:27.697Z,13.45
2018-10-03T05:09:56.642Z,13.42
2018-10-03T05:12:25.571Z,13.53
2018-10-03T05:14:54.558Z,13.52
2018-10-03T05:17:23.474Z,13.54
2018-10-03T05:19:52.427Z,13.55
2018-10-03T05:22:21.359Z,13.65
2018-10-03T05:24:50.311Z,13.69
2018-10-03T05:27:19.253Z,13.68
2018-10-03T05:29:48.195Z,13.57
2018-10-03T05:32:17.126Z,13.67
2018-10-03T05:34:46.091Z,13.77
2018-10-03T05:37:15.017Z,13.82
2018-10-03T05:39:44.007Z,13.78
2018-10-03T05:42:12.945Z,13.77
2018-10-03T05:44:41.879Z,13.69
2018-10-03T05:47:10.823Z,13.58
2018-10-03T05:49:39.826Z,13.63
2018-10-03T05:52:08.758Z,13.64
2018-10-03T05:54:37.735Z,13.50
2018-10-03T05:57:06.764Z,13.60
2018-10-03T05:59:35.770Z,13.69
2018-10-03T06:02:04.748Z,13.74
2018-10-03T06:04:33.703Z,13.76
2018-10-03T06:07:02.619Z,13.61
2018-10-03T06:09:31.578Z,13.65
2018-10-03T06:12:00.547Z,13.66
2018-10-03T06:14:29.513Z,13.73
2018-10-03T06:16:58.467Z,13.76
2018-10-03T06:19:27.462Z,13.86
2018-10-03T06:21:56.438Z,13.77
2018-10-03T06:24:25.406Z,13.67
2018-10-03T06:26:54.368Z,13.70
2018-10-03T06:29:23.464Z,13.69
2018-10-03T06:31:52.437Z,13.59
2018-10-03T06:34:21.428Z,13.80
2018-10-03T06:36:50.406Z,13.69
2018-10-03T06:39:19.499Z,13.76
2018-10-03T06:41:48.427Z,13.85
2018-10-03T06:44:17.980Z,13.76
2018-10-03T06:46:47.042Z,13.92
2018-10-03T06:49:16.014Z,13.71
2018-10-03T06:51:44.985Z,13.81
2018-10-03T06:54:13.918Z,13.60
2018-10-03T06:56:42.891Z,13.50
2018-10-03T06:59:11.822Z,13.58
2018-10-03T07:01:40.786Z,13.62
2018-10-03T07:04:09.726Z,13.74
2018-10-03T07:06:38.687Z,13.83
2018-10-03T07:09:08.254Z,13.87
2018-10-03T07:11:37.530Z,14.04
2018-10-03T07:14:06.670Z,13.98
2018-10-03T07:16:35.663Z,14.14
2018-10-03T07:19:04.620Z,14.07
2018-10-03T07:21:33.609Z,13.71
2018-10-03T07:24:02.562Z,13.76
2018-10-03T07:26:31.521Z,13.94
2018-10-03T07:29:00.474Z,13.88
2018-10-03T07:31:29.654Z,13.73
2018-10-03T07:33:58.698Z,14.02
2018-10-03T07:36:27.658Z,14.15
2018-10-03T07:38:56.604Z,14.23
2018-10-03T07:41:25.670Z,14.07
2018-10-03T07:43:54.616Z,14.32
2018-10-03T07:46:23.601Z,14.19
2018-10-03T07:48:52.633Z,14.37
2018-10-03T07:51:21.603Z,14.33
2018-10-03T07:53:50.566Z,14.36
2018-10-03T07:56:19.641Z,14.26
2018-10-03T07:58:48.606Z,14.30
2018-10-03T08:01:17.587Z,14.35
2018-10-03T08:03:47.502Z,14.39
2018-10-03T08:06:16.471Z,14.68
2018-10-03T08:08:45.435Z,14.89
2018-10-03T08:11:14.407Z,14.83
2018-10-03T08:13:43.332Z,14.95
2018-10-03T08:16:12.279Z,14.83
2018-10-03T08:18:41.203Z,14.75
2018-10-03T08:21:10.139Z,15.25
2018-10-03T08:23:39.069Z,15.34
2018-10-03T08:26:08.011Z,15.01
2018-10-03T08:28:37.035Z,15.10
2018-10-03T08:31:06.038Z,15.14
2018-10-03T08:33:34.963Z,15.13
2018-10-03T08:36:03.967Z,15.50
2018-10-03T08:38:32.945Z,15.20
2018-10-03T08:41:01.847Z,14.86
2018-10-03T08:43:30.794Z,15.02
2018-10-03T08:45:59.727Z,15.17
2018-10-03T08:48:32.298Z,15.33
2018-10-03T08:51:01.242Z,15.57
2018-10-03T08:53:30.657Z,15.56
2018-10-03T08:55:59.752Z,15.64
2018-10-03T08:58:28.952Z,15.68
2018-10-03T09:00:57.894Z,15.48
2018-10-03T09:03:26.977Z,15.30
2018-10-03T09:05:56.107Z,15.71
2018-10-03T09:08:25.176Z,15.65
2018-10-03T09:10:54.221Z,15.47
2018-10-03T09:13:23.230Z,15.55
2018-10-03T09:15:52.711Z,15.41
2018-10-03T09:18:21.716Z,15.55
2018-10-03T09:20:50.718Z,15.69
2018-10-03T09:23:19.713Z,15.88
2018-10-03T09:25:49.714Z,15.71
2018-10-03T09:28:18.781Z,15.80
2018-10-03T09:30:52.354Z,15.53
2018-10-03T09:33:21.456Z,15.78
2018-10-03T09:35:50.410Z,15.50
2018-10-03T09:38:19.390Z,15.91
2018-10-03T09:40:48.484Z,15.90
2018-10-03T09:43:17.458Z,15.67
2018-10-03T09:45:46.507Z,15.63
2018-10-03T09:48:15.476Z,15.58
2018-10-03T09:50:44.458Z,15.51
2018-10-03T09:53:13.463Z,15.48
2018-10-03T09:55:42.431Z,15.72
2018-10-03T09:58:11.401Z,15.62
2018-10-03T10:00:45.722Z,15.98
2018-10-03T10:03:14.779Z,16.23
2018-10-03T10:05:44.651Z,16.11
2018-10-03T10:08:13.627Z,16.15
2018-10-03T10:10:42.626Z,16.32
2018-10-03T10:13:11.619Z,16.11
2018-10-03T10:15:40.816Z,16.53
2018-10-03T10:18:09.850Z,16.14
2018-10-03T10:20:38.903Z,16.08
2018-10-03T10:23:07.970Z,15.93
2018-10-03T10:25:36.912Z,15.98
2018-10-03T10:28:06.315Z,16.16
2018-10-03T10:30:35.295Z,16.12
2018-10-03T10:33:04.313Z,16.27
2018-10-03T10:35:33.238Z,16.37
2018-10-03T10:38:02.255Z,16.52
2018-10-03T10:40:31.343Z,16.61
2018-10-03T10:43:01.312Z,16.71
2018-10-03T10:45:30.259Z,16.68
2018-10-03T10:47:59.229Z,16.60
2018-10-03T10:50:28.262Z,16.71
2018-10-03T10:52:57.803Z,16.85
2018-10-03T10:55:26.914Z,16.77
2018-10-03T10:57:57.655Z,16.82
2018-10-03T11:00:26.663Z,17.23
2018-10-03T11:02:55.695Z,17.15
2018-10-03T11:05:24.651Z,16.76
2018-10-03T11:07:53.675Z,16.72
2018-10-03T11:10:22.750Z,16.64
2018-10-03T11:12:51.799Z,16.47
2018-10-03T11:15:20.794Z,16.70
2018-10-03T11:17:49.750Z,16.35
2018-10-03T11:20:18.773Z,16.34
2018-10-03T11:22:47.759Z,16.17
2018-10-03T11:25:16.835Z,16.50
2018-10-03T11:27:46.035Z,16.45
2018-10-03T11:30:15.010Z,16.63
2018-10-03T11:32:43.959Z,16.75
2018-10-03T11:35:12.966Z,16.70
2018-10-03T11:37:41.938Z,17.02
2018-10-03T11:40:10.981Z,17.21
2018-10-03T11:42:41.002Z,17.28
2018-10-03T11:45:10.051Z,17.26
2018-10-03T11:47:38.978Z,17.10
2018-10-03T11:50:07.978Z,16.99
2018-10-03T11:52:36.959Z,17.22
2018-10-03T11:55:05.945Z,16.97
2018-10-03T11:57:34.875Z,17.02
2018-10-03T12:00:03.950Z,17.08
2018-10-03T12:02:33.010Z,17.29
2018-10-03T12:05:02.087Z,17.20
2018-10-03T12:07:31.051Z,17.23
2018-10-03T12:10:00.115Z,17.23
2018-10-03T12:12:29.208Z,17.12
2018-10-03T12:14:58.191Z,17.15
2018-10-03T12:17:27.234Z,17.41
2018-10-03T12:19:56.367Z,17.40
2018-10-03T12:22:25.348Z,17.18
2018-10-03T12:24:55.153Z,17.06
2018-10-03T12:27:24.111Z,17.31
2018-10-03T12:29:53.283Z,17.26
2018-10-03T12:32:22.235Z,16.85
2018-10-03T12:34:51.155Z,16.93
2018-10-03T12:37:20.086Z,16.85
2018-10-03T12:39:49.057Z,16.95
2018-10-03T12:42:17.977Z,16.80
2018-10-03T12:44:46.919Z,16.72
2018-10-03T12:47:15.848Z,16.80
2018-10-03T12:49:44.836Z,16.74
2018-10-03T12:52:13.748Z,16.63
2018-10-03T12:54:42.698Z,16.83
2018-10-03T12:57:11.651Z,16.85
2018-10-03T12:59:40.585Z,16.45
2018-10-03T13:02:09.563Z,16.74
2018-10-03T13:04:38.569Z,16.94
2018-10-03T13:07:07.498Z,17.03
2018-10-03T13:09:36.474Z,17.32
2018-10-03T13:12:05.398Z,17.41
2018-10-03T13:14:34.386Z,17.37
2018-10-03T13:17:03.383Z,17.50
2018-10-03T13:19:32.330Z,17.61
2018-10-03T13:22:01.255Z,17.40
2018-10-03T13:24:30.389Z,17.31
2018-10-03T13:26:59.262Z,17.41
2018-10-03T13:29:28.204Z,17.50
2018-10-03T13:31:57.140Z,17.53
2018-10-03T13:34:26.141Z,17.47
2018-10-03T13:36:55.123Z,17.73
2018-10-03T13:39:24.068Z,17.83
2018-10-03T13:41:53.058Z,17.96
2018-10-03T13:44:22.273Z,17.82
2018-10-03T13:46:51.443Z,17.77
2018-10-03T13:49:20.306Z,17.58
2018-10-03T13:51:49.259Z,17.49
2018-10-03T13:54:18.170Z,17.61
2018-10-03T13:56:47.130Z,17.70
2018-10-03T13:59:16.055Z,17.73
2018-10-03T14:01:45.067Z,17.62
2018-10-03T14:04:13.996Z,17.31
2018-10-03T14:06:42.921Z,17.45
2018-10-03T14:09:12.268Z,17.03
2018-10-03T14:11:41.274Z,16.85
2018-10-03T14:14:10.238Z,16.83
2018-10-03T14:16:39.222Z,16.98
2018-10-03T14:19:08.171Z,17.07
2018-10-03T14:21:37.170Z,16.99
2018-10-03T14:24:06.112Z,17.28
2018-10-03T14:26:35.121Z,17.10
2018-10-03T14:29:04.062Z,17.09
2018-10-03T14:31:33.222Z,17.11
2018-10-03T14:34:02.266Z,17.40
2018-10-03T14:36:31.226Z,17.15
2018-10-03T14:39:00.181Z,17.20
2018-10-03T14:41:29.214Z,17.13
2018-10-03T14:43:58.150Z,17.41
2018-10-03T14:46:27.160Z,17.26
2018-10-03T14:48:56.078Z,17.47
2018-10-03T14:51:25.126Z,17.42
2018-10-03T14:53:54.071Z,17.25
2018-10-03T14:56:23.038Z,17.16
2018-10-03T14:58:52.116Z,17.41
2018-10-03T15:01:21.095Z,17.55
2018-10-03T15:03:50.115Z,17.30
2018-10-03T15:06:20.147Z,17.04
2018-10-03T15:08:50.197Z,17.26
2018-10-03T15:11:20.109Z,17.28
2018-10-03T15:13:49.175Z,17.33
2018-10-03T15:16:18.271Z,17.33
2018-10-03T15:18:47.294Z,17.38
2018-10-03T15:21:16.393Z,17.20
2018-10-03T15:23:45.384Z,17.43
2018-10-03T15:26:14.362Z,17.63
2018-10-03T15:28:43.408Z,17.68
2018-10-03T15:31:12.466Z,17.86
2018-10-03T15:33:41.430Z,17.77
2018-10-03T15:36:10.438Z,17.70
2018-10-03T15:38:39.712Z,17.81
2018-10-03T15:41:08.727Z,17.84
2018-10-03T15:43:37.671Z,17.83
2018-10-03T15:46:06.634Z,17.90
2018-10-03T15:48:35.595Z,17.84
2018-10-03T15:51:04.603Z,17.88
2018-10-03T15:53:34.222Z,17.71
2018-10-03T15:56:03.498Z,17.76
2018-10-03T15:58:32.474Z,17.80
2018-10-03T16:01:01.474Z,17.86
2018-10-03T16:03:30.503Z,17.68
2018-10-03T16:05:59.438Z,17.59
2018-10-03T16:08:28.411Z,17.59
2018-10-03T16:10:57.443Z,17.36
2018-10-03T16:13:26.411Z,17.14
2018-10-03T16:15:55.334Z,17.26
2018-10-03T16:18:24.288Z,17.31
2018-10-03T16:20:53.280Z,17.33
2018-10-03T16:23:22.247Z,17.25
2018-10-03T16:25:51.260Z,17.31
2018-10-03T16:28:20.314Z,17.33
2018-10-03T16:30:49.278Z,17.39
2018-10-03T16:33:18.235Z,17.45
2018-10-03T16:35:47.150Z,17.47
2018-10-03T16:38:16.151Z,17.55
2018-10-03T16:40:45.679Z,17.45
2018-10-03T16:43:14.647Z,17.44
2018-10-03T16:45:43.561Z,17.52
2018-10-03T16:48:12.503Z,17.46
2018-10-03T16:50:41.430Z,17.08
2018-10-03T16:53:10.382Z,17.09
2018-10-03T16:55:39.323Z,17.10
2018-10-03T16:58:08.784Z,17.10
2018-10-03T17:00:37.786Z,17.10
2018-10-03T17:03:06.799Z,17.09
2018-10-03T17:05:35.798Z,17.02
2018-10-03T17:08:04.755Z,17.13
2018-10-03T17:10:33.754Z,17.08
2018-10-03T17:13:02.715Z,16.78
2018-10-03T17:15:31.751Z,16.80
2018-10-03T17:18:00.726Z,16.95
2018-10-03T17:20:29.675Z,17.05
2018-10-03T17:22:58.643Z,16.97
2018-10-03T17:25:27.619Z,16.99
2018-10-03T17:27:57.218Z,16.77
2018-10-03T17:30:26.185Z,17.11
2018-10-03T17:32:55.191Z,17.14
2018-10-03T17:35:24.194Z,17.14
2018-10-03T17:37:53.154Z,17.17
2018-10-03T17:40:22.162Z,17.14
2018-10-03T17:42:51.178Z,17.16
2018-10-03T17:45:20.190Z,17.15
2018-10-03T17:47:49.194Z,17.12
2018-10-03T17:50:18.226Z,17.07
2018-10-03T17:52:47.192Z,17.04
2018-10-03T17:55:16.246Z,17.08
2018-10-03T17:57:45.222Z,17.03
2018-10-03T18:00:14.180Z,17.05
2018-10-03T18:02:43.171Z,17.05
2018-10-03T18:05:12.178Z,17.03
2018-10-03T18:07:41.150Z,17.03
2018-10-03T18:10:10.138Z,17.00
2018-10-03T18:12:39.178Z,16.98
2018-10-03T18:15:08.224Z,17.00
2018-10-03T18:17:37.210Z,16.99
2018-10-03T18:20:06.159Z,17.00
2018-10-03T18:22:35.111Z,17.00
2018-10-03T18:25:04.132Z,17.03
2018-10-03T18:27:33.051Z,17.05
2018-10-03T18:30:02.134Z,17.01
2018-10-03T18:32:31.079Z,16.99
2018-10-03T18:35:00.039Z,16.99
2018-10-03T18:37:29.248Z,16.94
2018-10-03T18:39:58.267Z,16.91
2018-10-03T18:42:27.262Z,16.88
2018-10-03T18:44:56.290Z,16.82
2018-10-03T18:47:25.290Z,16.74
2018-10-03T18:49:54.238Z,16.70
2018-10-03T18:52:23.250Z,16.66
2018-10-03T18:54:52.271Z,16.61
2018-10-03T18:57:21.377Z,16.55
2018-10-03T18:59:50.318Z,16.53
2018-10-03T19:02:19.258Z,16.52
2018-10-03T19:04:48.233Z,16.47
2018-10-03T19:07:17.182Z,16.38
2018-10-03T19:09:46.131Z,16.36
2018-10-03T19:12:15.150Z,16.34
2018-10-03T19:14:44.072Z,16.31
2018-10-03T19:17:13.062Z,16.25
2018-10-03T19:19:42.031Z,16.19
2018-10-03T19:22:10.993Z,16.05
2018-10-03T19:24:39.942Z,16.19
2018-10-03T19:27:08.886Z,16.12
2018-10-03T19:29:37.863Z,15.85
2018-10-03T19:32:06.809Z,15.83
2018-10-03T19:34:35.900Z,15.79
2018-10-03T19:37:04.875Z,15.61
2018-10-03T19:39:33.870Z,15.58
2018-10-03T19:42:02.891Z,15.61
2018-10-03T19:44:31.798Z,15.58
2018-10-03T19:47:00.883Z,15.50
2018-10-03T19:49:29.935Z,15.51
2018-10-03T19:51:58.903Z,15.48
2018-10-03T19:54:28.123Z,15.43
2018-10-03T19:56:57.081Z,15.41
2018-10-03T19:59:26.043Z,15.35
2018-10-03T20:01:54.997Z,15.29
2018-10-03T20:04:23.951Z,15.26
2018-10-03T20:06:52.915Z,15.26
2018-10-03T20:09:21.882Z,15.24
2018-10-03T20:11:51.629Z,15.14
2018-10-03T20:14:20.634Z,14.81
2018-10-03T20:16:49.575Z,14.73
2018-10-03T20:19:18.570Z,14.70
2018-10-03T20:21:47.515Z,14.69
2018-10-03T20:24:16.502Z,14.73
2018-10-03T20:26:45.534Z,14.77
2018-10-03T20:29:14.507Z,14.78
2018-10-03T20:31:43.527Z,14.72
2018-10-03T20:34:12.489Z,14.59
2018-10-03T20:36:41.421Z,14.57
2018-10-03T20:39:10.503Z,14.63
2018-10-03T20:41:39.555Z,14.64
2018-10-03T20:44:08.550Z,14.59
2018-10-03T20:46:37.519Z,14.59
2018-10-03T20:49:06.482Z,14.58
2018-10-03T20:51:35.467Z,14.52
2018-10-03T20:54:04.396Z,14.47
2018-10-03T20:56:33.360Z,14.48
2018-10-03T20:59:03.223Z,14.36
2018-10-03T21:01:32.198Z,14.36
2018-10-03T21:04:01.156Z,14.35
2018-10-03T21:06:30.118Z,14.34
2018-10-03T21:08:59.058Z,14.34
2018-10-03T21:11:28.082Z,14.33
2018-10-03T21:13:57.057Z,14.32
2018-10-03T21:16:26.047Z,14.28
2018-10-03T21:18:54.994Z,14.27
2018-10-03T21:21:23.976Z,14.25
2018-10-03T21:23:53.015Z,14.25
2018-10-03T21:26:22.015Z,14.24
2018-10-03T21:28:51.097Z,14.04
2018-10-03T21:31:20.103Z,13.92
2018-10-03T21:33:49.043Z,13.98
2018-10-03T21:36:18.102Z,14.01
2018-10-03T21:38:47.163Z,13.95
2018-10-03T21:41:16.143Z,13.96
2018-10-03T21:43:45.185Z,13.93
2018-10-03T21:48:59.058Z,13.97
2018-10-03T21:51:28.054Z,13.91
2018-10-03T21:53:56.986Z,13.89
2018-10-03T21:56:25.976Z,13.72
2018-10-03T21:58:54.916Z,13.62
2018-10-03T22:01:23.886Z,13.61
2018-10-03T22:03:52.827Z,13.60
2018-10-03T22:06:21.859Z,13.59
2018-10-03T22:08:50.879Z,13.64
2018-10-03T22:11:19.829Z,13.59
2018-10-03T22:13:48.822Z,13.57
2018-10-03T22:16:17.763Z,13.48
2018-10-03T22:18:46.686Z,13.50
2018-10-03T22:21:15.614Z,13.61
2018-10-03T22:23:44.543Z,13.57
2018-10-03T22:26:13.555Z,13.54
2018-10-03T22:28:42.474Z,13.51
2018-10-03T22:31:11.451Z,13.46
2018-10-03T22:33:40.366Z,13.42
2018-10-03T22:36:09.316Z,13.51
2018-10-03T22:38:38.271Z,13.54
2018-10-03T22:41:07.226Z,13.51
2018-10-03T22:43:36.818Z,13.58
2018-10-03T22:46:06.266Z,13.60
2018-10-03T22:48:35.340Z,13.55
2018-10-03T22:51:04.294Z,13.52
2018-10-03T22:53:33.287Z,13.52
2018-10-03T22:56:02.220Z,13.50
2018-10-03T22:58:31.199Z,13.55
2018-10-03T23:01:00.134Z,13.61
2018-10-03T23:03:29.086Z,13.65
2018-10-03T23:05:58.062Z,13.68
2018-10-03T23:08:27.038Z,13.64
2018-10-03T23:10:55.970Z,13.64
2018-10-03T23:13:24.910Z,13.68
2018-10-03T23:15:53.958Z,13.59
2018-10-03T23:18:22.908Z,13.57
2018-10-03T23:20:52.288Z,13.47
2018-10-03T23:23:21.255Z,13.42
2018-10-03T23:25:50.174Z,13.37
2018-10-03T23:28:19.118Z,13.37
2018-10-03T23:30:48.024Z,13.38
2018-10-03T23:33:16.966Z,13.37
2018-10-03T23:35:45.879Z,13.40
2018-10-03T23:38:14.819Z,13.52
2018-10-03T23:40:43.770Z,13.46
2018-10-03T23:43:12.711Z,13.47
2018-10-03T23:45:41.642Z,13.53
2018-10-03T23:48:10.582Z,13.60
2018-10-03T23:50:39.499Z,13.66
2018-10-03T23:53:08.447Z,13.68
2018-10-03T23:55:37.354Z,13.72
2018-10-03T23:58:06.383Z,13.70
